Time;durP1;ratioP1;P1;durP2;ratioP2;P2;SDS_P1;SDS_P2;PMS_P1;PMS_P2;Temp;Humidity;BMP_temperature;BMP_pressure;BME280_temperature;BME280_humidity;BME280_pressure;Samples;Min_cycle;Max_cycle;Signal;HPM_P1;HPM_P2
2023/07/18 00:00:32;;;;;;;11.27;3.85;;;15.20;99.90;;;;;;5020916;28;20071;-79
2023/07/18 00:02:59;;;;;;;11.55;3.90;;;15.10;99.90;;;;;;5005659;28;20042;-79
2023/07/18 00:05:25;;;;;;;11.32;3.70;;;15.20;99.90;;;;;;5030018;28;20033;-79
2023/07/18 00:07:51;;;;;;;12.60;3.85;;;15.10;99.90;;;;;;5005756;28;20064;-79
2023/07/18 00:10:19;;;;;;;11.75;3.50;;;15.10;99.90;;;;;;5012904;28;20052;-78
2023/07/18 00:12:45;;;;;;;13.82;4.00;;;15.20;99.90;;;;;;5009860;28;20036;-79
2023/07/18 00:15:12;;;;;;;12.45;3.60;;;15.10;99.90;;;;;;5033936;28;20046;-79
2023/07/18 00:17:40;;;;;;;13.55;4.00;;;15.70;99.90;;;;;;5036213;28;20080;-79
2023/07/18 00:20:12;;;;;;;13.13;4.15;;;15.10;99.90;;;;;;5037901;28;20057;-79
2023/07/18 00:22:41;;;;;;;13.90;3.50;;;15.10;99.90;;;;;;5037635;28;20298;-79
2023/07/18 00:25:13;;;;;;;14.15;4.10;;;15.10;99.90;;;;;;5036319;28;20052;-79
2023/07/18 00:27:40;;;;;;;12.38;3.90;;;15.10;99.90;;;;;;5019477;28;20053;-79
2023/07/18 00:30:07;;;;;;;11.50;3.60;;;15.10;99.90;;;;;;5020870;28;20079;-79
2023/07/18 00:32:33;;;;;;;12.75;3.47;;;15.10;99.90;;;;;;5019930;28;20025;-79
2023/07/18 00:35:00;;;;;;;13.80;4.03;;;15.10;99.90;;;;;;5022235;28;20025;-79
2023/07/18 00:37:26;;;;;;;15.95;4.03;;;15.10;99.90;;;;;;5018928;28;20216;-79
2023/07/18 00:39:53;;;;;;;12.52;3.75;;;;;;;;;;4995471;28;20085;-79
2023/07/18 00:42:19;;;;;;;16.15;3.90;;;15.10;99.90;;;;;;5036554;28;20044;-79
2023/07/18 00:44:48;;;;;;;12.18;4.10;;;15.00;99.90;;;;;;5015726;28;20096;-79
2023/07/18 00:47:14;;;;;;;11.40;3.35;;;15.00;99.90;;;;;;5036538;28;20041;-79
2023/07/18 00:49:40;;;;;;;13.27;4.03;;;15.00;99.90;;;;;;5037916;28;20021;-79
2023/07/18 00:52:06;;;;;;;12.57;3.88;;;15.00;99.90;;;;;;5036739;28;20025;-79
2023/07/18 00:54:33;;;;;;;12.07;3.38;;;15.00;99.90;;;;;;5036430;28;20327;-79
2023/07/18 00:56:59;;;;;;;11.23;3.92;;;14.90;99.90;;;;;;5020299;28;20049;-79
2023/07/18 00:59:27;;;;;;;13.68;3.65;;;14.90;99.90;;;;;;5036623;28;20128;-79
2023/07/18 01:01:53;;;;;;;13.55;4.22;;;14.90;99.90;;;;;;5013277;28;20057;-79
2023/07/18 01:04:19;;;;;;;11.38;3.72;;;14.90;99.90;;;;;;5035332;28;20029;-79
2023/07/18 01:06:46;;;;;;;16.75;4.00;;;14.90;99.90;;;;;;5037299;28;20249;-79
2023/07/18 01:09:12;;;;;;;10.10;3.60;;;14.90;99.90;;;;;;5035813;28;20195;-79
2023/07/18 01:11:38;;;;;;;11.77;3.92;;;14.80;99.90;;;;;;5036883;28;20028;-79
2023/07/18 01:14:03;;;;;;;9.98;3.30;;;14.80;99.90;;;;;;5005886;28;20278;-79
2023/07/18 01:16:30;;;;;;;13.50;4.25;;;14.80;99.90;;;;;;5003354;28;20033;-79
2023/07/18 01:18:55;;;;;;;12.90;3.78;;;14.80;99.90;;;;;;5018831;28;20076;-79
2023/07/18 01:21:22;;;;;;;14.10;3.92;;;14.70;99.90;;;;;;5020636;28;20045;-79
2023/07/18 01:23:48;;;;;;;13.43;3.92;;;14.70;99.90;;;;;;5004977;28;20243;-79
2023/07/18 01:26:15;;;;;;;14.57;4.22;;;14.70;99.90;;;;;;5028797;28;20045;-79
2023/07/18 01:28:41;;;;;;;13.23;3.78;;;14.70;99.90;;;;;;5035238;28;20021;-79
2023/07/18 01:31:07;;;;;;;14.60;4.38;;;14.70;99.90;;;;;;5010234;28;20034;-79
2023/07/18 01:33:33;;;;;;;14.60;4.05;;;14.70;99.90;;;;;;5036807;28;20156;-79
2023/07/18 01:35:59;;;;;;;13.73;4.25;;;14.70;99.90;;;;;;5012400;28;20030;-79
2023/07/18 01:38:31;;;;;;;12.73;4.20;;;14.70;99.90;;;;;;5008817;28;20102;-79
2023/07/18 01:40:58;;;;;;;14.90;3.92;;;14.60;99.90;;;;;;5004171;28;20033;-79
2023/07/18 01:43:24;;;;;;;14.30;4.22;;;14.70;99.90;;;;;;5012937;28;20083;-79
2023/07/18 01:45:49;;;;;;;11.82;4.13;;;14.70;99.90;;;;;;5017180;28;20041;-79
2023/07/18 01:48:16;;;;;;;14.93;4.03;;;14.60;99.90;;;;;;5038548;28;20041;-80
2023/07/18 01:50:42;;;;;;;12.75;4.43;;;14.60;99.90;;;;;;5027816;28;20034;-79
2023/07/18 01:53:10;;;;;;;15.05;4.28;;;14.60;99.90;;;;;;5037075;28;20052;-79
2023/07/18 01:55:37;;;;;;;13.15;4.38;;;14.60;99.90;;;;;;5005570;28;20030;-79
2023/07/18 01:58:03;;;;;;;16.05;4.50;;;14.60;99.90;;;;;;5020134;28;20041;-79
2023/07/18 02:00:30;;;;;;;14.18;4.35;;;14.60;99.90;;;;;;5031601;28;20021;-79
2023/07/18 02:02:57;;;;;;;14.80;4.50;;;14.60;99.90;;;;;;5019608;28;20117;-79
2023/07/18 02:05:28;;;;;;;12.27;4.07;;;14.60;99.90;;;;;;5007027;28;20606;-79
2023/07/18 02:07:55;;;;;;;17.88;4.72;;;14.60;99.90;;;;;;5032753;28;20029;-79
2023/07/18 02:10:21;;;;;;;13.63;4.28;;;14.60;99.90;;;;;;5035974;28;20294;-79
2023/07/18 02:12:48;;;;;;;14.35;4.70;;;14.60;99.90;;;;;;5020695;28;20030;-79
2023/07/18 02:15:14;;;;;;;12.27;4.07;;;14.50;99.90;;;;;;5001223;28;20088;-79
2023/07/18 02:17:40;;;;;;;15.07;4.55;;;14.50;99.90;;;;;;5011560;28;20049;-79
2023/07/18 02:20:09;;;;;;;17.00;4.85;;;14.60;99.90;;;;;;5031166;28;20208;-79
2023/07/18 02:22:35;;;;;;;15.73;4.35;;;14.50;99.90;;;;;;5021531;28;20033;-79
2023/07/18 02:25:03;;;;;;;12.77;4.32;;;14.50;99.90;;;;;;5015591;28;20046;-79
2023/07/18 02:27:30;;;;;;;13.70;4.30;;;14.50;99.90;;;;;;5033161;28;20036;-79
2023/07/18 02:29:56;;;;;;;13.80;4.45;;;14.50;99.90;;;;;;5016680;28;20037;-79
2023/07/18 02:32:22;;;;;;;12.52;4.00;;;14.50;99.90;;;;;;5033404;28;20068;-79
2023/07/18 02:34:48;;;;;;;12.38;4.05;;;14.50;99.90;;;;;;5019374;28;20068;-79
2023/07/18 02:37:13;;;;;;;15.38;4.07;;;14.50;99.90;;;;;;5020527;28;20176;-79
2023/07/18 02:39:42;;;;;;;11.98;4.25;;;14.50;99.90;;;;;;5015133;28;20121;-79
2023/07/18 02:42:08;;;;;;;12.00;4.20;;;14.50;99.90;;;;;;5015462;28;20034;-79
2023/07/18 02:44:34;;;;;;;12.75;3.60;;;14.50;99.90;;;;;;5034163;28;20057;-79
2023/07/18 02:46:59;;;;;;;13.65;4.20;;;14.50;99.90;;;;;;5017575;28;20264;-79
2023/07/18 02:49:25;;;;;;;11.70;3.90;;;14.40;99.90;;;;;;5034476;28;20051;-79
2023/07/18 02:51:51;;;;;;;12.85;4.30;;;14.50;99.90;;;;;;5004257;28;20205;-79
2023/07/18 02:54:17;;;;;;;14.70;4.40;;;14.50;99.90;;;;;;5013828;28;20033;-79
2023/07/18 02:56:43;;;;;;;16.63;4.40;;;14.50;99.90;;;;;;5002481;28;20280;-79
2023/07/18 02:59:09;;;;;;;12.75;4.25;;;14.50;99.90;;;;;;5017618;28;20055;-79
2023/07/18 03:01:34;;;;;;;14.98;4.38;;;14.40;99.90;;;;;;5017424;28;20018;-79
2023/07/18 03:04:00;;;;;;;14.30;4.13;;;14.40;99.90;;;;;;5032106;28;20037;-79
2023/07/18 03:06:27;;;;;;;15.38;4.57;;;14.50;99.90;;;;;;5016178;28;20029;-79
2023/07/18 03:08:53;;;;;;;13.05;4.28;;;14.40;99.90;;;;;;5034540;28;20267;-79
2023/07/18 03:11:19;;;;;;;16.90;4.40;;;14.40;99.90;;;;;;5029394;28;20029;-79
2023/07/18 03:13:45;;;;;;;15.98;4.55;;;14.40;99.90;;;;;;5013710;28;21308;-79
2023/07/18 03:16:11;;;;;;;14.43;4.53;;;14.40;99.90;;;;;;5020234;28;20029;-79
2023/07/18 03:18:37;;;;;;;13.98;4.82;;;14.40;99.90;;;;;;5018381;28;20057;-79
2023/07/18 03:21:03;;;;;;;18.40;4.28;;;14.40;99.90;;;;;;5000163;28;20114;-79
2023/07/18 03:23:29;;;;;;;13.65;4.65;;;14.40;99.90;;;;;;5014532;28;20030;-79
2023/07/18 03:25:55;;;;;;;14.60;4.63;;;14.40;99.90;;;;;;5004059;28;20344;-79
2023/07/18 03:28:21;;;;;;;16.67;5.22;;;14.40;99.90;;;;;;5018965;28;20025;-79
2023/07/18 03:30:47;;;;;;;17.48;4.72;;;14.40;99.90;;;;;;5016827;28;20334;-79
2023/07/18 03:33:13;;;;;;;16.30;4.88;;;14.40;99.90;;;;;;5018794;28;20037;-79
2023/07/18 03:35:39;;;;;;;14.52;4.38;;;14.00;99.90;;;;;;5002495;28;20045;-79
2023/07/18 03:38:05;;;;;;;14.77;4.88;;;14.40;99.90;;;;;;5006389;28;20045;-79
2023/07/18 03:40:30;;;;;;;18.58;4.80;;;14.40;99.90;;;;;;5036711;28;20283;-79
2023/07/18 03:42:56;;;;;;;16.75;4.70;;;14.50;99.90;;;;;;5017532;28;20017;-79
2023/07/18 03:45:22;;;;;;;15.73;4.68;;;14.40;99.90;;;;;;4999030;28;20038;-79
2023/07/18 03:47:48;;;;;;;12.73;4.90;;;14.40;99.90;;;;;;4997692;28;20073;-79
2023/07/18 03:50:16;;;;;;;14.13;4.90;;;14.50;99.90;;;;;;5000457;28;20056;-79
2023/07/18 03:52:42;;;;;;;13.07;4.57;;;14.40;99.90;;;;;;5033038;28;20080;-79
2023/07/18 03:55:08;;;;;;;15.77;4.68;;;14.40;99.90;;;;;;5002815;28;20228;-79
2023/07/18 03:57:34;;;;;;;13.70;4.45;;;14.40;99.90;;;;;;5034477;28;20042;-79
2023/07/18 04:00:03;;;;;;;13.07;4.60;;;14.40;99.90;;;;;;5035922;28;20179;-79
2023/07/18 04:02:29;;;;;;;13.93;4.30;;;14.40;99.90;;;;;;5000095;28;20026;-79
2023/07/18 04:04:54;;;;;;;15.32;5.10;;;14.40;99.90;;;;;;5031711;28;20739;-79
2023/07/18 04:07:20;;;;;;;14.18;4.97;;;14.40;99.90;;;;;;5018740;28;20039;-79
2023/07/18 04:09:46;;;;;;;17.67;5.25;;;14.40;99.90;;;;;;5034732;28;20030;-79
2023/07/18 04:12:13;;;;;;;14.38;4.57;;;14.40;99.90;;;;;;5017870;28;20014;-79
2023/07/18 04:14:42;;;;;;;17.90;5.28;;;14.40;99.90;;;;;;5015139;28;20095;-79
2023/07/18 04:17:08;;;;;;;17.17;4.60;;;14.40;99.90;;;;;;4997303;28;20025;-79
2023/07/18 04:19:34;;;;;;;16.65;5.10;;;15.50;99.90;;;;;;5002193;28;20134;-79
2023/07/18 04:21:59;;;;;;;12.32;4.32;;;14.40;99.90;;;;;;5003305;28;20025;-79
2023/07/18 04:24:25;;;;;;;17.85;4.80;;;14.50;99.90;;;;;;5016311;28;20111;-79
2023/07/18 04:26:51;;;;;;;14.20;4.95;;;14.50;99.90;;;;;;5033271;28;20052;-80
2023/07/18 04:29:18;;;;;;;16.33;5.03;;;14.50;99.90;;;;;;5001730;28;20087;-79
2023/07/18 04:31:45;;;;;;;16.45;5.10;;;14.50;99.90;;;;;;5008091;28;20026;-79
2023/07/18 04:34:11;;;;;;;17.10;4.88;;;14.50;99.90;;;;;;5031879;28;20033;-79
2023/07/18 04:36:37;;;;;;;15.52;5.45;;;14.50;99.90;;;;;;5016146;28;20038;-79
2023/07/18 04:39:03;;;;;;;15.07;4.85;;;14.60;99.90;;;;;;5019911;28;20041;-79
2023/07/18 04:41:29;;;;;;;13.88;4.60;;;14.60;99.90;;;;;;5012652;28;20041;-79
2023/07/18 04:43:55;;;;;;;15.20;5.03;;;14.60;99.90;;;;;;5013490;28;20034;-80
2023/07/18 04:46:20;;;;;;;16.00;5.20;;;14.70;99.90;;;;;;4998489;28;20033;-79
2023/07/18 04:48:46;;;;;;;13.38;4.40;;;14.70;99.90;;;;;;4998298;28;20065;-79
2023/07/18 04:51:12;;;;;;;17.63;4.97;;;14.70;99.90;;;;;;4995029;28;20029;-79
2023/07/18 04:53:38;;;;;;;15.98;5.28;;;14.80;99.90;;;;;;5035619;28;20098;-79
2023/07/18 04:56:05;;;;;;;16.10;5.13;;;14.80;99.90;;;;;;5019694;28;20309;-80
2023/07/18 04:58:31;;;;;;;14.75;5.38;;;14.80;99.90;;;;;;5002125;28;20053;-79
2023/07/18 05:00:59;;;;;;;20.42;5.00;;;14.80;99.90;;;;;;5004987;28;20052;-79
2023/07/18 05:03:25;;;;;;;15.23;4.70;;;14.90;99.90;;;;;;5004293;28;20031;-79
2023/07/18 05:05:52;;;;;;;14.25;4.85;;;14.90;99.90;;;;;;5013424;28;20030;-79
2023/07/18 05:08:17;;;;;;;13.43;4.53;;;14.90;99.90;;;;;;4998529;28;20033;-79
2023/07/18 05:10:44;;;;;;;16.25;5.85;;;15.00;99.90;;;;;;5038095;28;20056;-79
2023/07/18 05:13:10;;;;;;;15.90;5.03;;;15.00;99.90;;;;;;5020262;28;20068;-79
2023/07/18 05:15:36;;;;;;;15.23;5.10;;;15.10;99.90;;;;;;5000261;28;20098;-79
2023/07/18 05:18:02;;;;;;;19.45;5.30;;;15.20;99.90;;;;;;5002581;28;20064;-79
2023/07/18 05:20:28;;;;;;;14.70;4.97;;;15.10;99.90;;;;;;5002367;28;20030;-79
2023/07/18 05:22:54;;;;;;;13.32;4.63;;;15.20;99.90;;;;;;5030394;28;20060;-79
2023/07/18 05:25:20;;;;;;;16.33;5.05;;;15.20;99.90;;;;;;5034133;28;20045;-80
2023/07/18 05:27:45;;;;;;;15.05;5.50;;;15.20;99.90;;;;;;4999942;28;20144;-80
2023/07/18 05:30:19;;;;;;;16.50;5.18;;;15.30;99.90;;;;;;5034164;28;20137;-79
2023/07/18 05:32:46;;;;;;;15.18;5.20;;;15.30;99.90;;;;;;5030131;28;20122;-79
2023/07/18 05:35:15;;;;;;;13.65;4.90;;;15.40;99.90;;;;;;5030228;28;20018;-79
2023/07/18 05:37:42;;;;;;;14.00;4.82;;;15.50;99.90;;;;;;5029923;28;20044;-80
2023/07/18 05:40:12;;;;;;;16.60;5.25;;;15.60;99.90;;;;;;5027917;28;20172;-79
2023/07/18 05:42:38;;;;;;;17.48;5.07;;;15.70;99.90;;;;;;5009722;28;20053;-79
2023/07/18 05:45:05;;;;;;;13.75;4.80;;;15.80;99.90;;;;;;5028569;28;20279;-79
2023/07/18 05:47:31;;;;;;;14.52;5.22;;;15.80;99.90;;;;;;5006364;28;20175;-79
2023/07/18 05:49:57;;;;;;;16.33;5.22;;;15.80;99.90;;;;;;5006070;28;20112;-80
2023/07/18 05:52:22;;;;;;;16.00;5.07;;;15.80;99.90;;;;;;5022542;28;20030;-79
2023/07/18 05:54:49;;;;;;;15.82;5.20;;;15.80;99.90;;;;;;5030598;28;20252;-80
2023/07/18 05:57:15;;;;;;;16.52;5.22;;;15.80;99.90;;;;;;5010672;28;20064;-80
2023/07/18 05:59:41;;;;;;;19.58;5.28;;;15.80;99.90;;;;;;5008691;28;20029;-79
2023/07/18 06:02:07;;;;;;;15.55;5.07;;;15.80;99.90;;;;;;4989833;28;20306;-79
2023/07/18 06:04:35;;;;;;;14.38;4.90;;;15.90;99.90;;;;;;5009192;28;20250;-80
2023/07/18 06:07:00;;;;;;;13.10;4.80;;;15.90;99.90;;;;;;5022115;28;20178;-79
2023/07/18 06:09:26;;;;;;;15.18;5.30;;;16.00;99.90;;;;;;4993297;28;20041;-79
2023/07/18 06:11:52;;;;;;;16.05;5.75;;;16.00;99.90;;;;;;5023066;28;20175;-79
2023/07/18 06:14:18;;;;;;;14.90;4.82;;;16.00;99.90;;;;;;4994486;28;20041;-80
2023/07/18 06:16:45;;;;;;;17.50;5.32;;;16.20;99.90;;;;;;4994785;28;20102;-80
2023/07/18 06:19:12;;;;;;;18.33;5.18;;;16.30;99.90;;;;;;5017601;28;20132;-80
2023/07/18 06:21:38;;;;;;;14.27;5.07;;;16.40;99.90;;;;;;5032557;28;21129;-80
2023/07/18 06:24:05;;;;;;;15.52;5.38;;;16.50;99.90;;;;;;5003661;28;20417;-80
2023/07/18 06:26:30;;;;;;;16.23;5.32;;;16.60;99.90;;;;;;5014593;28;20025;-80
2023/07/18 06:28:56;;;;;;;15.68;4.88;;;16.80;99.90;;;;;;5035550;28;20108;-80
2023/07/18 06:31:22;;;;;;;14.70;4.93;;;17.00;99.90;;;;;;5012554;28;20036;-80
2023/07/18 06:33:48;;;;;;;15.02;4.85;;;17.00;99.90;;;;;;5012539;28;20060;-80
2023/07/18 06:36:15;;;;;;;16.38;4.97;;;17.20;99.90;;;;;;5012567;28;20064;-80
2023/07/18 06:38:41;;;;;;;19.90;5.53;;;17.30;99.90;;;;;;5031741;28;20239;-79
2023/07/18 06:41:07;;;;;;;15.63;5.28;;;17.30;99.90;;;;;;5036447;28;20041;-79
2023/07/18 06:43:33;;;;;;;17.60;5.28;;;17.30;99.90;;;;;;5033364;28;20046;-79
2023/07/18 06:45:59;;;;;;;17.30;5.55;;;17.40;99.90;;;;;;5020508;28;20063;-80
2023/07/18 06:48:25;;;;;;;14.30;5.20;;;17.50;99.90;;;;;;5014972;28;20041;-80
2023/07/18 06:50:53;;;;;;;16.20;5.82;;;17.50;99.90;;;;;;5015817;28;20026;-80
2023/07/18 06:53:22;;;;;;;18.75;6.28;;;17.50;99.90;;;;;;5033405;28;20064;-80
2023/07/18 06:55:51;;;;;;;16.38;5.40;;;17.50;99.90;;;;;;5007375;28;20172;-80
2023/07/18 06:58:18;;;;;;;16.45;5.63;;;17.50;99.90;;;;;;5030299;28;20061;-80
2023/07/18 07:00:45;;;;;;;15.90;5.28;;;17.50;99.90;;;;;;5032556;28;20213;-80
2023/07/18 07:03:11;;;;;;;18.13;5.78;;;17.50;99.90;;;;;;5036130;28;20312;-80
2023/07/18 07:05:38;;;;;;;16.25;6.03;;;17.50;99.90;;;;;;5013871;28;21503;-80
2023/07/18 07:08:08;;;;;;;15.73;5.65;;;17.60;99.90;;;;;;5033147;28;20036;-80
2023/07/18 07:10:35;;;;;;;14.27;4.97;;;17.60;99.90;;;;;;5018577;28;20040;-80
2023/07/18 07:13:01;;;;;;;17.42;5.78;;;17.80;99.90;;;;;;5030646;28;20342;-80
2023/07/18 07:15:26;;;;;;;17.52;4.93;;;18.00;99.90;;;;;;5001377;28;20029;-79
2023/07/18 07:17:52;;;;;;;22.75;6.55;;;18.20;99.90;;;;;;5034070;28;20048;-79
2023/07/18 07:20:19;;;;;;;18.75;5.72;;;18.30;99.90;;;;;;5013313;28;20048;-80
2023/07/18 07:22:47;;;;;;;16.35;5.78;;;18.30;99.90;;;;;;5019036;28;20056;-80
2023/07/18 07:25:16;;;;;;;20.63;6.13;;;18.40;99.90;;;;;;5028036;28;20075;-80
2023/07/18 07:27:43;;;;;;;21.67;5.82;;;18.40;99.90;;;;;;5012936;28;20029;-79
2023/07/18 07:30:10;;;;;;;17.50;6.38;;;18.40;99.90;;;;;;5033536;28;20106;-79
2023/07/18 07:32:36;;;;;;;17.83;5.95;;;18.40;99.90;;;;;;5033115;28;20099;-79
2023/07/18 07:35:04;;;;;;;19.45;6.00;;;18.40;99.90;;;;;;5007197;28;20294;-79
2023/07/18 07:37:30;;;;;;;17.17;5.80;;;18.40;99.90;;;;;;5009420;28;20182;-79
2023/07/18 07:39:56;;;;;;;17.75;6.00;;;18.40;99.90;;;;;;5033008;28;20053;-79
2023/07/18 07:42:21;;;;;;;17.10;5.75;;;18.60;99.90;;;;;;4997620;28;20025;-80
2023/07/18 07:44:48;;;;;;;16.17;5.82;;;18.70;99.90;;;;;;5032102;28;20229;-79
2023/07/18 07:47:14;;;;;;;15.77;5.45;;;18.80;99.90;;;;;;5034210;28;20056;-79
2023/07/18 07:49:39;;;;;;;20.13;5.60;;;18.90;99.90;;;;;;5018176;28;20275;-79
2023/07/18 07:52:06;;;;;;;17.92;5.50;;;19.10;99.90;;;;;;5018083;28;20037;-79
2023/07/18 07:54:31;;;;;;;19.38;5.07;;;19.10;99.90;;;;;;5024196;28;20044;-79
2023/07/18 07:56:57;;;;;;;16.30;4.68;;;19.30;99.90;;;;;;4999516;28;20042;-80
2023/07/18 07:59:22;;;;;;;18.17;5.30;;;19.60;99.90;;;;;;5016310;28;20040;-79
2023/07/18 08:01:48;;;;;;;14.05;3.97;;;19.80;99.90;;;;;;4983897;28;20040;-79
2023/07/18 08:04:14;;;;;;;13.45;3.55;;;20.00;99.90;;;;;;5012118;28;20113;-79
2023/07/18 08:06:40;;;;;;;15.52;4.25;;;20.30;99.90;;;;;;5028176;28;20203;-80
2023/07/18 08:09:05;;;;;;;17.48;3.88;;;20.30;99.90;;;;;;5002631;28;20084;-79
2023/07/18 08:11:31;;;;;;;10.77;3.70;;;20.50;99.90;;;;;;5031906;28;20071;-80
2023/07/18 08:13:57;;;;;;;11.57;3.25;;;20.60;99.90;;;;;;5038018;28;20290;-80
2023/07/18 08:16:23;;;;;;;15.52;3.58;;;20.70;99.90;;;;;;5032920;28;20024;-80
2023/07/18 08:18:48;;;;;;;16.42;3.58;;;20.70;99.90;;;;;;5013806;28;20172;-79
2023/07/18 08:21:14;;;;;;;11.77;3.20;;;20.70;99.90;;;;;;5035876;28;20053;-79
2023/07/18 08:23:40;;;;;;;9.52;2.85;;;20.80;99.90;;;;;;5036134;28;20037;-79
2023/07/18 08:26:07;;;;;;;12.13;3.35;;;20.70;99.90;;;;;;4996708;28;20040;-80
2023/07/18 08:28:32;;;;;;;12.45;3.45;;;20.80;99.90;;;;;;5018016;28;20088;-80
2023/07/18 08:31:02;;;;;;;11.88;3.33;;;20.80;99.90;;;;;;5022615;28;20041;-80
2023/07/18 08:33:27;;;;;;;12.60;3.22;;;20.80;99.90;;;;;;5038995;28;20105;-80
2023/07/18 08:35:53;;;;;;;11.27;2.72;;;20.80;99.90;;;;;;5005599;28;20293;-80
2023/07/18 08:38:19;;;;;;;11.27;2.67;;;20.90;99.90;;;;;;5035619;28;20056;-80
2023/07/18 08:40:45;;;;;;;10.75;2.45;;;20.90;99.90;;;;;;5036149;28;20053;-80
2023/07/18 08:43:14;;;;;;;10.30;2.40;;;21.00;99.90;;;;;;5018421;28;20059;-79
2023/07/18 08:45:41;;;;;;;11.25;3.00;;;21.10;99.90;;;;;;5035448;28;20025;-79
2023/07/18 08:48:07;;;;;;;11.68;2.60;;;21.20;99.90;;;;;;5016753;28;20033;-80
2023/07/18 08:50:34;;;;;;;8.68;2.28;;;21.30;99.90;;;;;;5007161;28;20044;-79
2023/07/18 08:53:00;;;;;;;9.70;2.50;;;;;;;;;;5004660;28;20036;-79
2023/07/18 08:55:29;;;;;;;10.15;2.53;;;21.50;99.90;;;;;;5008688;28;20133;-79
2023/07/18 08:57:55;;;;;;;11.07;2.58;;;21.60;99.90;;;;;;5015464;28;20042;-80
2023/07/18 09:00:21;;;;;;;11.52;2.42;;;21.70;99.90;;;;;;5004790;28;20035;-80
2023/07/18 09:02:50;;;;;;;10.30;3.05;;;21.90;99.90;;;;;;5020963;28;20223;-80
2023/07/18 09:05:31;;;;;;;10.00;2.72;;;22.00;99.90;;;;;;5012316;28;20033;-80
2023/07/18 09:07:58;;;;;;;11.35;2.50;;;22.10;99.90;;;;;;5034061;28;20262;-80
2023/07/18 09:10:24;;;;;;;8.70;2.08;;;22.20;99.90;;;;;;5036461;28;20041;-80
2023/07/18 09:12:50;;;;;;;10.13;2.55;;;22.30;99.90;;;;;;5020425;28;20021;-80
2023/07/18 09:15:20;;;;;;;10.00;2.22;;;22.60;99.90;;;;;;5038796;28;20026;-80
2023/07/18 09:17:57;;;;;;;10.02;2.10;;;22.60;99.90;;;;;;5032649;28;20382;-80
2023/07/18 09:20:24;;;;;;;12.23;2.00;;;22.80;99.90;;;;;;5034828;28;20279;-80
2023/07/18 09:22:57;;;;;;;11.82;2.65;;;22.60;99.90;;;;;;5036059;28;20033;-80
2023/07/18 09:25:24;;;;;;;9.95;2.42;;;22.50;99.90;;;;;;5013660;28;20232;-80
2023/07/18 09:27:51;;;;;;;7.50;1.85;;;22.60;99.90;;;;;;5030578;28;20057;-80
2023/07/18 09:30:43;;;;;;;11.07;2.30;;;22.80;99.90;;;;;;5003177;28;20038;-80
2023/07/18 09:33:09;;;;;;;10.45;2.30;;;22.80;99.90;;;;;;5034186;28;20065;-80
2023/07/18 09:35:42;;;;;;;10.30;2.42;;;22.70;99.90;;;;;;5027972;28;20030;-80
2023/07/18 09:38:10;;;;;;;10.57;2.50;;;22.50;99.90;;;;;;5033379;28;20040;-80
2023/07/18 09:40:36;;;;;;;10.07;2.15;;;22.30;99.90;;;;;;5017771;28;20085;-81
2023/07/18 09:43:03;;;;;;;7.63;2.28;;;22.10;99.90;;;;;;5035391;28;20048;-80
2023/07/18 09:45:31;;;;;;;8.65;2.20;;;22.00;99.90;;;;;;5019716;28;20033;-80
2023/07/18 09:47:58;;;;;;;10.77;2.80;;;22.00;99.90;;;;;;5018721;28;20243;-80
2023/07/18 09:50:26;;;;;;;9.57;2.03;;;21.90;99.90;;;;;;5036088;28;20100;-81
2023/07/18 09:52:55;;;;;;;12.40;2.35;;;21.80;99.90;;;;;;5036712;28;20096;-80
2023/07/18 09:55:26;;;;;;;9.38;1.98;;;21.70;99.90;;;;;;5027871;28;20160;-80
2023/07/18 09:57:55;;;;;;;9.47;2.60;;;21.50;99.90;;;;;;5016263;28;20096;-80
2023/07/18 10:00:23;;;;;;;11.35;2.50;;;21.40;99.90;;;;;;5033899;28;20585;-80
2023/07/18 10:02:49;;;;;;;9.85;2.28;;;21.60;99.90;;;;;;5033703;28;20025;-80
2023/07/18 10:05:16;;;;;;;10.48;2.65;;;22.00;99.90;;;;;;5011442;28;20036;-80
2023/07/18 10:07:43;;;;;;;9.88;2.03;;;22.20;99.90;;;;;;5016668;28;20151;-80
2023/07/18 10:10:10;;;;;;;11.38;2.45;;;22.30;99.90;;;;;;5026253;28;20119;-80
2023/07/18 10:12:37;;;;;;;11.38;2.53;;;22.40;99.90;;;;;;5018785;28;20021;-80
2023/07/18 10:15:04;;;;;;;10.02;2.30;;;22.10;99.90;;;;;;5034717;28;20052;-81
2023/07/18 10:17:35;;;;;;;10.30;2.53;;;22.10;99.90;;;;;;5031669;28;20045;-80
2023/07/18 10:20:06;;;;;;;9.70;2.63;;;22.10;99.90;;;;;;5010366;28;20164;-80
2023/07/18 10:22:32;;;;;;;9.15;2.60;;;22.10;99.90;;;;;;5037137;28;20025;-81
2023/07/18 10:25:08;;;;;;;11.20;2.78;;;22.50;99.90;;;;;;5024685;28;20226;-80
2023/07/18 10:27:38;;;;;;;11.02;2.70;;;22.90;99.90;;;;;;5028576;28;20029;-80
2023/07/18 10:30:09;;;;;;;9.05;2.55;;;23.30;99.90;;;;;;5016441;28;20044;-80
2023/07/18 10:32:42;;;;;;;10.88;2.58;;;23.40;99.90;;;;;;5016258;28;20029;-80
2023/07/18 10:35:10;;;;;;;10.55;2.70;;;23.40;99.90;;;;;;5015860;28;20036;-80
2023/07/18 10:37:37;;;;;;;10.45;2.75;;;23.40;99.90;;;;;;5032687;28;20049;-81
2023/07/18 10:40:05;;;;;;;9.23;2.25;;;23.10;99.90;;;;;;5034017;28;20072;-81
2023/07/18 10:42:34;;;;;;;9.43;2.25;;;22.80;99.90;;;;;;5032856;28;20075;-80
2023/07/18 10:45:05;;;;;;;8.85;2.20;;;22.50;99.90;;;;;;5014326;28;20041;-80
2023/07/18 10:47:34;;;;;;;8.90;2.30;;;22.30;99.90;;;;;;5032967;28;20064;-80
2023/07/18 10:50:01;;;;;;;9.20;2.38;;;22.10;99.90;;;;;;5009738;28;20038;-80
2023/07/18 10:52:28;;;;;;;12.00;2.50;;;21.90;99.90;;;;;;5003298;28;20037;-80
2023/07/18 10:54:56;;;;;;;11.98;2.50;;;21.80;99.90;;;;;;5008408;28;20390;-80
2023/07/18 10:57:28;;;;;;;12.30;2.35;;;21.70;99.90;;;;;;5018393;28;20014;-81
2023/07/18 10:59:54;;;;;;;10.88;2.50;;;21.50;99.90;;;;;;5031417;28;20049;-81
2023/07/18 11:02:21;;;;;;;9.45;2.58;;;21.50;99.90;;;;;;5034265;28;20199;-80
2023/07/18 11:04:48;;;;;;;12.02;2.80;;;21.50;99.90;;;;;;5012076;28;20049;-81
2023/07/18 11:07:14;;;;;;;10.73;2.70;;;21.40;99.90;;;;;;5028515;28;20049;-80
2023/07/18 11:09:40;;;;;;;12.45;3.03;;;21.40;99.90;;;;;;5033311;28;20124;-80
2023/07/18 11:12:15;;;;;;;8.15;2.20;;;21.70;99.90;;;;;;5031134;28;20077;-80
2023/07/18 11:14:41;;;;;;;11.30;2.63;;;21.80;99.90;;;;;;5031450;28;20113;-81
2023/07/18 11:17:16;;;;;;;10.45;2.30;;;22.20;99.90;;;;;;4997929;28;20038;-81
2023/07/18 11:19:43;;;;;;;9.30;2.30;;;22.30;99.90;;;;;;5023603;28;20065;-81
2023/07/18 11:22:13;;;;;;;9.90;2.35;;;22.80;99.90;;;;;;5026589;28;20303;-81
2023/07/18 11:24:40;;;;;;;9.00;2.03;;;23.00;99.90;;;;;;5007292;28;20248;-81
2023/07/18 11:27:11;;;;;;;8.40;2.10;;;22.90;99.90;;;;;;5013255;28;20043;-81
2023/07/18 11:29:36;;;;;;;7.70;1.98;;;22.80;99.90;;;;;;5029555;28;20056;-81
2023/07/18 11:32:02;;;;;;;8.52;2.50;;;23.10;99.90;;;;;;5014647;28;20271;-81
2023/07/18 11:34:28;;;;;;;7.40;1.88;;;23.00;99.90;;;;;;5018099;28;20033;-81
2023/07/18 11:36:53;;;;;;;8.35;2.00;;;23.40;99.90;;;;;;5028958;28;20018;-81
2023/07/18 11:39:21;;;;;;;8.50;2.00;;;23.50;99.90;;;;;;4998906;28;20303;-81
2023/07/18 11:41:47;;;;;;;8.55;1.90;;;23.70;99.90;;;;;;5031956;28;20056;-81
2023/07/18 11:44:25;;;;;;;8.75;2.20;;;23.60;99.90;;;;;;5009728;28;20286;-81
2023/07/18 11:46:52;;;;;;;8.98;2.10;;;23.60;99.90;;;;;;5035453;28;20142;-81
2023/07/18 11:49:31;;;;;;;11.07;2.10;;;23.80;99.90;;;;;;5035111;28;20242;-81
2023/07/18 11:51:56;;;;;;;9.10;2.22;;;23.90;99.90;;;;;;5025790;28;20033;-81
2023/07/18 11:54:26;;;;;;;8.20;2.30;;;24.30;99.90;;;;;;5009311;28;20433;-81
2023/07/18 11:56:52;;;;;;;9.27;1.95;;;;;;;;;;5005840;28;20022;-81
2023/07/18 11:59:18;;;;;;;9.07;2.08;;;24.50;99.90;;;;;;5036884;28;20119;-81
2023/07/18 12:01:44;;;;;;;9.15;2.15;;;24.30;99.90;;;;;;4997770;28;20029;-81
2023/07/18 12:04:12;;;;;;;7.60;2.20;;;23.90;99.90;;;;;;5015102;28;20061;-81
2023/07/18 12:06:38;;;;;;;6.93;2.13;;;23.90;99.90;;;;;;5019912;28;20101;-81
2023/07/18 12:09:04;;;;;;;10.73;2.10;;;23.70;99.90;;;;;;5003439;28;20033;-81
2023/07/18 12:11:31;;;;;;;9.00;2.30;;;;;;;;;;5036402;28;20034;-81
2023/07/18 12:13:57;;;;;;;7.72;2.30;;;24.10;99.90;;;;;;5021324;28;20259;-81
2023/07/18 12:16:22;;;;;;;9.48;2.17;;;24.00;99.90;;;;;;5037816;28;20034;-81
2023/07/18 12:18:48;;;;;;;9.05;2.35;;;24.20;99.90;;;;;;5035863;28;20079;-81
2023/07/18 12:21:14;;;;;;;8.93;2.42;;;24.50;99.90;;;;;;5020440;28;20370;-81
2023/07/18 12:23:40;;;;;;;8.88;2.08;;;24.80;99.90;;;;;;5037906;28;20029;-81
2023/07/18 12:26:06;;;;;;;10.75;2.60;;;24.60;99.90;;;;;;4991819;28;20072;-81
2023/07/18 12:28:32;;;;;;;9.35;2.42;;;24.30;99.90;;;;;;5038557;28;20028;-81
2023/07/18 12:30:57;;;;;;;8.55;2.50;;;24.30;99.90;;;;;;5037656;28;20041;-82
2023/07/18 12:33:23;;;;;;;8.35;2.38;;;24.10;99.90;;;;;;5037295;28;20130;-81
2023/07/18 12:35:50;;;;;;;9.02;2.28;;;24.00;99.90;;;;;;5033663;28;20037;-81
2023/07/18 12:38:16;;;;;;;8.70;2.33;;;23.80;99.90;;;;;;5036642;28;20022;-81